sensor_id;sensor_type;location;lat;lon;timestamp;pressure;altitude;pressure_sealevel;temperature;humidity
21203;BME280;10759;51.982;9.232;2023-04-08T00:01:15;100892.09;;;7.08;71.87
21203;BME280;10759;51.982;9.232;2023-04-08T00:03:43;100935.22;;;7.37;72.25
21203;BME280;10759;51.982;9.232;2023-04-08T00:06:11;100954.66;;;7.45;72.17
21203;BME280;10759;51.982;9.232;2023-04-08T00:08:39;100948.50;;;7.41;72.10
21203;BME280;10759;51.982;9.232;2023-04-08T00:11:07;100953.72;;;7.47;74.23
21203;BME280;10759;51.982;9.232;2023-04-08T00:13:37;100953.72;;;7.47;73.61
21203;BME280;10759;51.982;9.232;2023-04-08T00:16:05;100921.91;;;7.35;72.85
21203;BME280;10759;51.982;9.232;2023-04-08T00:18:33;100962.53;;;7.52;73.57
21203;BME280;10759;51.982;9.232;2023-04-08T00:21:03;100958.91;;;7.57;74.25
21203;BME280;10759;51.982;9.232;2023-04-08T00:23:31;100957.03;;;7.62;74.80
21203;BME280;10759;51.982;9.232;2023-04-08T00:25:59;100957.91;;;7.62;75.83
21203;BME280;10759;51.982;9.232;2023-04-08T00:28:27;100952.69;;;7.56;76.36
21203;BME280;10759;51.982;9.232;2023-04-08T00:30:56;100939.38;;;7.55;76.36
21203;BME280;10759;51.982;9.232;2023-04-08T00:33:24;100944.81;;;7.48;76.63
21203;BME280;10759;51.982;9.232;2023-04-08T00:35:52;100957.03;;;7.63;76.66
21203;BME280;10759;51.982;9.232;2023-04-08T00:38:20;100926.22;;;7.44;77.05
21203;BME280;10759;51.982;9.232;2023-04-08T00:40:48;100943.81;;;7.56;77.76
21203;BME280;10759;51.982;9.232;2023-04-08T00:43:16;100926.84;;;7.60;77.90
21203;BME280;10759;51.982;9.232;2023-04-08T00:45:46;100961.84;;;7.38;82.97
21203;BME280;10759;51.982;9.232;2023-04-08T00:48:15;100966.19;;;7.45;83.56
21203;BME280;10759;51.982;9.232;2023-04-08T00:50:43;100963.38;;;7.55;82.97
21203;BME280;10759;51.982;9.232;2023-04-08T00:53:14;100943.16;;;7.40;85.08
21203;BME280;10759;51.982;9.232;2023-04-08T00:55:44;100950.97;;;7.52;83.54
21203;BME280;10759;51.982;9.232;2023-04-08T00:58:12;100803.94;;;6.66;82.36
21203;BME280;10759;51.982;9.232;2023-04-08T01:00:43;100949.16;;;7.56;82.23
21203;BME280;10759;51.982;9.232;2023-04-08T01:03:17;100952.72;;;7.55;81.60
21203;BME280;10759;51.982;9.232;2023-04-08T01:05:53;100955.31;;;7.58;82.46
21203;BME280;10759;51.982;9.232;2023-04-08T01:08:24;100960.63;;;7.61;82.76
21203;BME280;10759;51.982;9.232;2023-04-08T01:10:54;100927.03;;;7.47;82.67
21203;BME280;10759;51.982;9.232;2023-04-08T01:13:25;100949.91;;;7.64;83.13
21203;BME280;10759;51.982;9.232;2023-04-08T01:15:55;100952.59;;;7.62;84.38
21203;BME280;10759;51.982;9.232;2023-04-08T01:18:25;100901.38;;;7.42;84.66
21203;BME280;10759;51.982;9.232;2023-04-08T01:20:55;100952.50;;;7.67;85.66
21203;BME280;10759;51.982;9.232;2023-04-08T01:23:32;100945.38;;;7.69;86.48
21203;BME280;10759;51.982;9.232;2023-04-08T01:26:04;100940.03;;;7.67;87.05
21203;BME280;10759;51.982;9.232;2023-04-08T01:28:34;100950.09;;;7.51;86.12
21203;BME280;10759;51.982;9.232;2023-04-08T01:31:03;100937.66;;;7.50;86.79
21203;BME280;10759;51.982;9.232;2023-04-08T01:33:33;100932.31;;;7.50;86.01
21203;BME280;10759;51.982;9.232;2023-04-08T01:36:02;100936.75;;;7.51;86.26
21203;BME280;10759;51.982;9.232;2023-04-08T01:38:32;100902.34;;;7.36;86.28
21203;BME280;10759;51.982;9.232;2023-04-08T01:41:02;100943.69;;;7.62;87.42
21203;BME280;10759;51.982;9.232;2023-04-08T01:43:34;100942.75;;;7.66;87.27
21203;BME280;10759;51.982;9.232;2023-04-08T01:46:05;100938.34;;;7.63;87.95
21203;BME280;10759;51.982;9.232;2023-04-08T01:48:34;100933.91;;;7.64;88.53
21203;BME280;10759;51.982;9.232;2023-04-08T01:51:03;100844.34;;;6.96;88.93
21203;BME280;10759;51.982;9.232;2023-04-08T01:53:31;100944.81;;;7.48;89.00
21203;BME280;10759;51.982;9.232;2023-04-08T01:56:03;100942.09;;;7.51;88.85
21203;BME280;10759;51.982;9.232;2023-04-08T01:58:38;100949.97;;;7.61;88.46
21203;BME280;10759;51.982;9.232;2023-04-08T02:01:10;100946.50;;;7.54;88.39
21203;BME280;10759;51.982;9.232;2023-04-08T02:03:40;100925.88;;;7.64;88.82
21203;BME280;10759;51.982;9.232;2023-04-08T02:06:09;100943.50;;;7.72;88.37
21203;BME280;10759;51.982;9.232;2023-04-08T02:08:37;100886.34;;;7.36;88.87
21203;BME280;10759;51.982;9.232;2023-04-08T02:11:05;100949.75;;;7.73;88.78
21203;BME280;10759;51.982;9.232;2023-04-08T02:13:33;100951.81;;;7.56;89.59
21203;BME280;10759;51.982;9.232;2023-04-08T02:16:09;100933.31;;;7.45;89.84
21203;BME280;10759;51.982;9.232;2023-04-08T02:18:42;100952.66;;;7.58;90.50
21203;BME280;10759;51.982;9.232;2023-04-08T02:21:14;100962.38;;;7.62;90.96
21203;BME280;10759;51.982;9.232;2023-04-08T02:23:46;100954.38;;;7.62;92.25
21203;BME280;10759;51.982;9.232;2023-04-08T02:26:17;100947.09;;;7.70;92.19
21203;BME280;10759;51.982;9.232;2023-04-08T02:28:48;100948.09;;;7.66;93.39
21203;BME280;10759;51.982;9.232;2023-04-08T02:31:22;100950.84;;;7.60;93.92
21203;BME280;10759;51.982;9.232;2023-04-08T02:33:51;100953.50;;;7.60;95.22
21203;BME280;10759;51.982;9.232;2023-04-08T02:36:20;100946.63;;;7.46;95.42
21203;BME280;10759;51.982;9.232;2023-04-08T02:38:49;100930.56;;;7.49;95.11
21203;BME280;10759;51.982;9.232;2023-04-08T02:41:17;100953.44;;;7.63;94.80
21203;BME280;10759;51.982;9.232;2023-04-08T02:43:47;100925.84;;;7.65;94.38
21203;BME280;10759;51.982;9.232;2023-04-08T02:46:14;100963.28;;;7.61;94.70
21203;BME280;10759;51.982;9.232;2023-04-08T02:48:44;100965.38;;;7.42;95.70
21203;BME280;10759;51.982;9.232;2023-04-08T02:51:12;100967.97;;;7.45;96.25
21203;BME280;10759;51.982;9.232;2023-04-08T02:53:40;100970.63;;;7.46;95.81
21203;BME280;10759;51.982;9.232;2023-04-08T02:56:09;100938.03;;;7.29;96.28
21203;BME280;10759;51.982;9.232;2023-04-08T02:58:37;100976.22;;;7.31;96.85
21203;BME280;10759;51.982;9.232;2023-04-08T03:01:04;100962.94;;;7.25;96.99
21203;BME280;10759;51.982;9.232;2023-04-08T03:03:32;100977.97;;;7.32;97.24
21203;BME280;10759;51.982;9.232;2023-04-08T03:06:02;100977.16;;;7.27;96.77
21203;BME280;10759;51.982;9.232;2023-04-08T03:08:30;100977.97;;;7.32;97.08
21203;BME280;10759;51.982;9.232;2023-04-08T03:10:58;100980.63;;;7.32;97.02
21203;BME280;10759;51.982;9.232;2023-04-08T03:13:26;100962.94;;;7.25;96.92
21203;BME280;10759;51.982;9.232;2023-04-08T03:15:55;100979.88;;;7.24;97.63
21203;BME280;10759;51.982;9.232;2023-04-08T03:18:23;100966.66;;;7.15;97.83
21203;BME280;10759;51.982;9.232;2023-04-08T03:20:51;100973.78;;;7.14;97.38
21203;BME280;10759;51.982;9.232;2023-04-08T03:23:20;100977.97;;;7.32;97.22
21203;BME280;10759;51.982;9.232;2023-04-08T03:25:48;100975.34;;;7.29;97.14
21203;BME280;10759;51.982;9.232;2023-04-08T03:28:16;100974.25;;;7.41;96.61
21203;BME280;10759;51.982;9.232;2023-04-08T03:30:44;100969.31;;;7.16;96.82
21203;BME280;10759;51.982;9.232;2023-04-08T03:33:11;100980.44;;;7.44;96.16
21203;BME280;10759;51.982;9.232;2023-04-08T03:35:39;100974.41;;;7.31;95.97
21203;BME280;10759;51.982;9.232;2023-04-08T03:38:07;100978.97;;;7.23;95.95
21203;BME280;10759;51.982;9.232;2023-04-08T03:40:36;100975.41;;;7.23;96.53
21203;BME280;10759;51.982;9.232;2023-04-08T03:43:04;100983.03;;;7.47;96.52
21203;BME280;10759;51.982;9.232;2023-04-08T03:45:34;100983.97;;;7.45;95.99
21203;BME280;10759;51.982;9.232;2023-04-08T03:48:02;100987.69;;;7.36;96.17
21203;BME280;10759;51.982;9.232;2023-04-08T03:50:30;100984.16;;;7.32;97.34
21203;BME280;10759;51.982;9.232;2023-04-08T03:52:57;100993.09;;;7.28;97.46
21203;BME280;10759;51.982;9.232;2023-04-08T03:55:25;100986.00;;;7.29;97.81
21203;BME280;10759;51.982;9.232;2023-04-08T03:57:54;100986.69;;;7.42;97.32
21203;BME280;10759;51.982;9.232;2023-04-08T04:00:22;100978.88;;;7.29;97.80
21203;BME280;10759;51.982;9.232;2023-04-08T04:02:50;100976.91;;;7.41;97.27
21203;BME280;10759;51.982;9.232;2023-04-08T04:05:18;100981.66;;;7.22;96.89
21203;BME280;10759;51.982;9.232;2023-04-08T04:07:46;100976.16;;;7.34;97.12
21203;BME280;10759;51.982;9.232;2023-04-08T04:10:14;100978.03;;;7.27;96.93
21203;BME280;10759;51.982;9.232;2023-04-08T04:12:42;100935.78;;;6.98;98.34
21203;BME280;10759;51.982;9.232;2023-04-08T04:15:12;100990.53;;;7.22;97.95
21203;BME280;10759;51.982;9.232;2023-04-08T04:17:39;100991.69;;;7.04;99.56
21203;BME280;10759;51.982;9.232;2023-04-08T04:20:08;100988.88;;;7.14;100.00
21203;BME280;10759;51.982;9.232;2023-04-08T04:22:36;100996.69;;;7.27;100.00
21203;BME280;10759;51.982;9.232;2023-04-08T04:25:05;100855.69;;;6.47;99.02
21203;BME280;10759;51.982;9.232;2023-04-08T04:27:33;100997.44;;;7.37;98.78
21203;BME280;10759;51.982;9.232;2023-04-08T04:30:02;100999.22;;;7.37;98.95
21203;BME280;10759;51.982;9.232;2023-04-08T04:32:32;100996.50;;;7.38;97.91
21203;BME280;10759;51.982;9.232;2023-04-08T04:35:00;101006.19;;;7.47;97.82
21203;BME280;10759;51.982;9.232;2023-04-08T04:37:28;101005.34;;;7.43;97.88
21203;BME280;10759;51.982;9.232;2023-04-08T04:39:56;101014.31;;;7.38;98.33
21203;BME280;10759;51.982;9.232;2023-04-08T04:42:24;101012.63;;;7.32;98.39
21203;BME280;10759;51.982;9.232;2023-04-08T04:44:52;100994.94;;;7.25;98.35
21203;BME280;10759;51.982;9.232;2023-04-08T04:47:20;101025.81;;;7.41;99.06
21203;BME280;10759;51.982;9.232;2023-04-08T04:49:49;101020.81;;;7.18;100.00
21203;BME280;10759;51.982;9.232;2023-04-08T04:52:17;101018.94;;;7.25;99.97
21203;BME280;10759;51.982;9.232;2023-04-08T04:54:45;101018.13;;;7.18;99.81
21203;BME280;10759;51.982;9.232;2023-04-08T04:57:13;101003.88;;;7.22;99.98
21203;BME280;10759;51.982;9.232;2023-04-08T04:59:41;101033.03;;;7.35;99.22
21203;BME280;10759;51.982;9.232;2023-04-08T05:02:08;101024.97;;;7.39;98.93
21203;BME280;10759;51.982;9.232;2023-04-08T05:04:36;101016.91;;;7.41;98.47
21203;BME280;10759;51.982;9.232;2023-04-08T05:07:06;101020.63;;;7.30;98.52
21203;BME280;10759;51.982;9.232;2023-04-08T05:09:33;101001.22;;;7.21;98.54
21203;BME280;10759;51.982;9.232;2023-04-08T05:12:01;101016.28;;;7.25;98.96
21203;BME280;10759;51.982;9.232;2023-04-08T05:14:29;101019.94;;;7.18;100.00
21203;BME280;10759;51.982;9.232;2023-04-08T05:16:57;101003.88;;;7.21;100.00
21203;BME280;10759;51.982;9.232;2023-04-08T05:19:25;101008.63;;;7.00;100.00
21203;BME280;10759;51.982;9.232;2023-04-08T05:21:53;101013.03;;;7.01;100.00
21203;BME280;10759;51.982;9.232;2023-04-08T05:24:22;101021.88;;;7.03;100.00
21203;BME280;10759;51.982;9.232;2023-04-08T05:26:50;101026.19;;;7.15;100.00
21203;BME280;10759;51.982;9.232;2023-04-08T05:29:18;101028.09;;;7.05;100.00
21203;BME280;10759;51.982;9.232;2023-04-08T05:31:47;101033.16;;;7.25;100.00
21203;BME280;10759;51.982;9.232;2023-04-08T05:34:15;100989.13;;;6.97;100.00
21203;BME280;10759;51.982;9.232;2023-04-08T05:36:48;101047.22;;;7.35;100.00
21203;BME280;10759;51.982;9.232;2023-04-08T05:39:17;101044.63;;;7.32;99.90
21203;BME280;10759;51.982;9.232;2023-04-08T05:41:46;101043.84;;;7.22;100.00
21203;BME280;10759;51.982;9.232;2023-04-08T05:44:14;101056.25;;;7.25;100.00
21203;BME280;10759;51.982;9.232;2023-04-08T05:46:42;101056.97;;;7.38;100.00
21203;BME280;10759;51.982;9.232;2023-04-08T05:49:10;101061.44;;;7.37;100.00
21203;BME280;10759;51.982;9.232;2023-04-08T05:51:38;101061.44;;;7.36;100.00
21203;BME280;10759;51.982;9.232;2023-04-08T05:54:06;101058.69;;;7.42;99.89
21203;BME280;10759;51.982;9.232;2023-04-08T05:56:34;101062.19;;;7.45;98.94
21203;BME280;10759;51.982;9.232;2023-04-08T05:59:03;101044.34;;;7.50;98.87
21203;BME280;10759;51.982;9.232;2023-04-08T06:01:31;101053.38;;;7.40;99.75
21203;BME280;10759;51.982;9.232;2023-04-08T06:03:59;101038.69;;;7.12;100.00
21203;BME280;10759;51.982;9.232;2023-04-08T06:06:27;101073.03;;;7.33;99.44
21203;BME280;10759;51.982;9.232;2023-04-08T06:08:55;101085.47;;;7.32;99.44
21203;BME280;10759;51.982;9.232;2023-04-08T06:11:23;101076.69;;;7.26;100.00
21203;BME280;10759;51.982;9.232;2023-04-08T06:13:51;101056.25;;;7.26;99.55
21203;BME280;10759;51.982;9.232;2023-04-08T06:16:20;101075.03;;;7.17;100.00
21203;BME280;10759;51.982;9.232;2023-04-08T06:18:48;101083.84;;;7.21;100.00
21203;BME280;10759;51.982;9.232;2023-04-08T06:21:16;101089.00;;;7.36;99.78
21203;BME280;10759;51.982;9.232;2023-04-08T06:23:44;101088.03;;;7.42;99.66
21203;BME280;10759;51.982;9.232;2023-04-08T06:26:12;101091.31;;;6.94;100.00
21203;BME280;10759;51.982;9.232;2023-04-08T06:28:40;101087.47;;;7.17;100.00
21203;BME280;10759;51.982;9.232;2023-04-08T06:31:07;101095.28;;;7.32;99.82
21203;BME280;10759;51.982;9.232;2023-04-08T06:33:37;101093.38;;;7.40;99.86
21203;BME280;10759;51.982;9.232;2023-04-08T06:36:05;101097.78;;;7.43;99.68
21203;BME280;10759;51.982;9.232;2023-04-08T06:38:34;101089.84;;;7.40;99.50
21203;BME280;10759;51.982;9.232;2023-04-08T06:41:02;101046.84;;;6.99;99.24
21203;BME280;10759;51.982;9.232;2023-04-08T06:43:30;101086.56;;;7.19;99.77
21203;BME280;10759;51.982;9.232;2023-04-08T06:45:58;101102.19;;;7.47;99.61
21203;BME280;10759;51.982;9.232;2023-04-08T06:48:26;101096.88;;;7.45;99.58
21203;BME280;10759;51.982;9.232;2023-04-08T06:50:59;101106.75;;;7.36;99.45
21203;BME280;10759;51.982;9.232;2023-04-08T06:53:27;101111.53;;;7.12;100.00
21203;BME280;10759;51.982;9.232;2023-04-08T06:55:56;101111.44;;;7.20;100.00
21203;BME280;10759;51.982;9.232;2023-04-08T06:58:24;101089.44;;;7.02;100.00
21203;BME280;10759;51.982;9.232;2023-04-08T07:00:52;101120.97;;;7.38;100.00
21203;BME280;10759;51.982;9.232;2023-04-08T07:03:21;101015.06;;;6.82;99.82
21203;BME280;10759;51.982;9.232;2023-04-08T07:05:49;101121.06;;;7.31;100.00
21203;BME280;10759;51.982;9.232;2023-04-08T07:08:18;101116.63;;;7.30;100.00
21203;BME280;10759;51.982;9.232;2023-04-08T07:10:46;101120.19;;;7.28;100.00
21203;BME280;10759;51.982;9.232;2023-04-08T07:13:14;101128.09;;;7.36;100.00
21203;BME280;10759;51.982;9.232;2023-04-08T07:15:43;101105.94;;;7.34;100.00
21203;BME280;10759;51.982;9.232;2023-04-08T07:18:10;101140.66;;;7.29;100.00
21203;BME280;10759;51.982;9.232;2023-04-08T07:20:39;101136.19;;;7.28;100.00
21203;BME280;10759;51.982;9.232;2023-04-08T07:23:07;101135.22;;;7.35;100.00
21203;BME280;10759;51.982;9.232;2023-04-08T07:25:36;101013.28;;;6.81;100.00
21203;BME280;10759;51.982;9.232;2023-04-08T07:28:04;101140.50;;;7.41;100.00
21203;BME280;10759;51.982;9.232;2023-04-08T07:30:32;101130.69;;;7.43;100.00
21203;BME280;10759;51.982;9.232;2023-04-08T07:33:00;101152.00;;;7.45;100.00
21203;BME280;10759;51.982;9.232;2023-04-08T07:35:28;101146.53;;;7.54;100.00
21203;BME280;10759;51.982;9.232;2023-04-08T07:37:57;101152.88;;;7.45;100.00
21203;BME280;10759;51.982;9.232;2023-04-08T07:40:25;101158.31;;;7.38;100.00
21203;BME280;10759;51.982;9.232;2023-04-08T07:42:54;101154.91;;;7.26;100.00
21203;BME280;10759;51.982;9.232;2023-04-08T07:45:22;101159.41;;;7.18;100.00
21203;BME280;10759;51.982;9.232;2023-04-08T07:47:49;101163.00;;;7.16;100.00
21203;BME280;10759;51.982;9.232;2023-04-08T07:50:17;101164.00;;;7.05;100.00
21203;BME280;10759;51.982;9.232;2023-04-08T07:52:45;101165.72;;;7.11;100.00
21203;BME280;10759;51.982;9.232;2023-04-08T07:55:13;101167.63;;;6.98;100.00
21203;BME280;10759;51.982;9.232;2023-04-08T07:57:41;101166.19;;;7.47;100.00
21203;BME280;10759;51.982;9.232;2023-04-08T08:00:11;101075.34;;;6.91;100.00
21203;BME280;10759;51.982;9.232;2023-04-08T08:02:46;101099.06;;;7.13;100.00
21203;BME280;10759;51.982;9.232;2023-04-08T08:05:14;101167.19;;;7.38;100.00
21203;BME280;10759;51.982;9.232;2023-04-08T08:07:43;101171.81;;;7.21;100.00
21203;BME280;10759;51.982;9.232;2023-04-08T08:10:11;101171.56;;;7.44;100.00
21203;BME280;10759;51.982;9.232;2023-04-08T08:12:39;101173.38;;;7.40;100.00
21203;BME280;10759;51.982;9.232;2023-04-08T08:15:08;101178.94;;;7.22;100.00
21203;BME280;10759;51.982;9.232;2023-04-08T08:17:37;101183.72;;;6.91;100.00
21203;BME280;10759;51.982;9.232;2023-04-08T08:20:06;101183.44;;;7.17;100.00
21203;BME280;10759;51.982;9.232;2023-04-08T08:22:34;101175.47;;;7.15;100.00
21203;BME280;10759;51.982;9.232;2023-04-08T08:25:20;101169.41;;;7.72;100.00
21203;BME280;10759;51.982;9.232;2023-04-08T08:27:50;101174.25;;;7.42;100.00
21203;BME280;10759;51.982;9.232;2023-04-08T08:30:18;101169.69;;;7.53;100.00
21203;BME280;10759;51.982;9.232;2023-04-08T08:32:49;101178.81;;;7.32;100.00
21203;BME280;10759;51.982;9.232;2023-04-08T08:35:17;101123.94;;;7.15;100.00
21203;BME280;10759;51.982;9.232;2023-04-08T08:37:45;101185.69;;;7.52;100.00
21203;BME280;10759;51.982;9.232;2023-04-08T08:40:13;101185.38;;;7.75;100.00
21203;BME280;10759;51.982;9.232;2023-04-08T08:42:49;101192.16;;;8.01;100.00
21203;BME280;10759;51.982;9.232;2023-04-08T08:45:18;101051.59;;;7.41;100.00
21203;BME280;10759;51.982;9.232;2023-04-08T08:47:47;101160.13;;;7.99;100.00
21203;BME280;10759;51.982;9.232;2023-04-08T08:50:18;101177.66;;;8.17;98.90
21203;BME280;10759;51.982;9.232;2023-04-08T08:52:50;101179.31;;;8.26;98.72
21203;BME280;10759;51.982;9.232;2023-04-08T08:55:18;101200.75;;;8.21;98.82
21203;BME280;10759;51.982;9.232;2023-04-08T08:58:06;101202.59;;;8.14;98.74
21203;BME280;10759;51.982;9.232;2023-04-08T09:00:35;101201.09;;;7.98;99.78
21203;BME280;10759;51.982;9.232;2023-04-08T09:03:14;101204.81;;;7.85;100.00
21203;BME280;10759;51.982;9.232;2023-04-08T09:05:51;101175.66;;;7.71;100.00
21203;BME280;10759;51.982;9.232;2023-04-08T09:08:26;101203.13;;;7.79;100.00
21203;BME280;10759;51.982;9.232;2023-04-08T09:10:55;101208.34;;;7.88;100.00
21203;BME280;10759;51.982;9.232;2023-04-08T09:13:24;101209.16;;;7.93;100.00
21203;BME280;10759;51.982;9.232;2023-04-08T09:16:02;101206.44;;;7.98;100.00
21203;BME280;10759;51.982;9.232;2023-04-08T09:18:31;101211.53;;;8.15;100.00
21203;BME280;10759;51.982;9.232;2023-04-08T09:21:01;101224.63;;;8.30;99.92
21203;BME280;10759;51.982;9.232;2023-04-08T09:23:42;101223.63;;;8.41;99.04
21203;BME280;10759;51.982;9.232;2023-04-08T09:26:11;101165.47;;;8.01;99.36
21203;BME280;10759;51.982;9.232;2023-04-08T09:28:41;101236.38;;;8.18;99.64
21203;BME280;10759;51.982;9.232;2023-04-08T09:31:19;101237.06;;;8.34;100.00
21203;BME280;10759;51.982;9.232;2023-04-08T09:33:48;101158.63;;;7.80;100.00
21203;BME280;10759;51.982;9.232;2023-04-08T09:36:18;101231.16;;;8.12;100.00
21203;BME280;10759;51.982;9.232;2023-04-08T09:38:46;101240.84;;;8.18;100.00
21203;BME280;10759;51.982;9.232;2023-04-08T09:41:15;101247.41;;;7.94;100.00
21203;BME280;10759;51.982;9.232;2023-04-08T09:43:46;101247.59;;;7.79;100.00
21203;BME280;10759;51.982;9.232;2023-04-08T09:46:17;101240.63;;;7.68;100.00
21203;BME280;10759;51.982;9.232;2023-04-08T09:48:48;101245.09;;;7.68;100.00
21203;BME280;10759;51.982;9.232;2023-04-08T09:51:22;101213.41;;;8.07;100.00
21203;BME280;10759;51.982;9.232;2023-04-08T09:53:57;101187.59;;;7.41;100.00
21203;BME280;10759;51.982;9.232;2023-04-08T09:56:34;101248.81;;;7.51;100.00
21203;BME280;10759;51.982;9.232;2023-04-08T09:59:10;101244.31;;;7.57;100.00
21203;BME280;10759;51.982;9.232;2023-04-08T10:01:42;101244.06;;;7.77;100.00
21203;BME280;10759;51.982;9.232;2023-04-08T10:04:14;101238.13;;;8.23;100.00
21203;BME280;10759;51.982;9.232;2023-04-08T10:06:44;101252.84;;;7.88;100.00
21203;BME280;10759;51.982;9.232;2023-04-08T10:09:17;101248.09;;;8.07;100.00
21203;BME280;10759;51.982;9.232;2023-04-08T10:11:45;101247.63;;;8.39;100.00
21203;BME280;10759;51.982;9.232;2023-04-08T10:14:12;101248.28;;;8.58;100.00
21203;BME280;10759;51.982;9.232;2023-04-08T10:16:40;101246.47;;;8.62;100.00
21203;BME280;10759;51.982;9.232;2023-04-08T10:19:35;101255.41;;;8.59;100.00
21203;BME280;10759;51.982;9.232;2023-04-08T10:22:45;101248.19;;;8.64;100.00
21203;BME280;10759;51.982;9.232;2023-04-08T10:25:30;101232.25;;;8.56;100.00
21203;BME280;10759;51.982;9.232;2023-04-08T10:27:59;101258.97;;;8.56;100.00
21203;BME280;10759;51.982;9.232;2023-04-08T10:30:40;101249.44;;;8.38;100.00
21203;BME280;10759;51.982;9.232;2023-04-08T10:33:09;101261.50;;;8.66;100.00
21203;BME280;10759;51.982;9.232;2023-04-08T10:35:41;101251.81;;;8.60;100.00
21203;BME280;10759;51.982;9.232;2023-04-08T10:38:13;101267.44;;;8.85;99.89
21203;BME280;10759;51.982;9.232;2023-04-08T10:40:42;101263.97;;;8.78;99.56
21203;BME280;10759;51.982;9.232;2023-04-08T10:43:12;101260.38;;;8.82;99.48
21203;BME280;10759;51.982;9.232;2023-04-08T10:45:41;101268.09;;;8.99;98.33
21203;BME280;10759;51.982;9.232;2023-04-08T10:48:14;101262.69;;;9.02;97.67
21203;BME280;10759;51.982;9.232;2023-04-08T10:50:44;101263.56;;;9.04;97.39
21203;BME280;10759;51.982;9.232;2023-04-08T10:53:25;101234.19;;;8.48;98.99
21203;BME280;10759;51.982;9.232;2023-04-08T10:55:53;101220.69;;;8.59;100.00
21203;BME280;10759;51.982;9.232;2023-04-08T10:58:21;101263.84;;;8.86;99.09
21203;BME280;10759;51.982;9.232;2023-04-08T11:00:49;101260.56;;;8.68;98.84
21203;BME280;10759;51.982;9.232;2023-04-08T11:03:18;101244.94;;;8.44;100.00
21203;BME280;10759;51.982;9.232;2023-04-08T11:05:48;101244.81;;;8.53;100.00
21203;BME280;10759;51.982;9.232;2023-04-08T11:08:16;101233.25;;;8.51;100.00
21203;BME280;10759;51.982;9.232;2023-04-08T11:10:48;101255.03;;;8.80;98.70
21203;BME280;10759;51.982;9.232;2023-04-08T11:13:17;101206.25;;;8.68;98.95
21203;BME280;10759;51.982;9.232;2023-04-08T11:15:45;101244.63;;;9.16;98.35
21203;BME280;10759;51.982;9.232;2023-04-08T11:18:13;101251.72;;;9.17;97.76
21203;BME280;10759;51.982;9.232;2023-04-08T11:20:42;101255.94;;;9.31;97.66
21203;BME280;10759;51.982;9.232;2023-04-08T11:23:11;101252.31;;;9.33;96.78
21203;BME280;10759;51.982;9.232;2023-04-08T11:25:41;101228.13;;;8.91;98.79
21203;BME280;10759;51.982;9.232;2023-04-08T11:28:10;101200.91;;;9.17;96.90
21203;BME280;10759;51.982;9.232;2023-04-08T11:30:39;101249.44;;;9.44;95.50
21203;BME280;10759;51.982;9.232;2023-04-08T11:33:07;101264.00;;;9.74;94.19
21203;BME280;10759;51.982;9.232;2023-04-08T11:35:38;101271.06;;;9.32;95.34
21203;BME280;10759;51.982;9.232;2023-04-08T11:38:07;101241.88;;;8.68;97.83
21203;BME280;10759;51.982;9.232;2023-04-08T11:40:35;101262.72;;;9.00;97.39
21203;BME280;10759;51.982;9.232;2023-04-08T11:43:09;101263.78;;;9.40;97.94
21203;BME280;10759;51.982;9.232;2023-04-08T11:45:38;101266.03;;;9.61;96.04
21203;BME280;10759;51.982;9.232;2023-04-08T11:48:09;101267.03;;;9.08;96.54
21203;BME280;10759;51.982;9.232;2023-04-08T11:50:37;101269.34;;;9.28;96.88
21203;BME280;10759;51.982;9.232;2023-04-08T11:53:15;101266.91;;;8.64;98.99
21203;BME280;10759;51.982;9.232;2023-04-08T11:55:43;101266.72;;;8.73;100.00
21203;BME280;10759;51.982;9.232;2023-04-08T11:58:12;101274.81;;;8.70;99.98
21203;BME280;10759;51.982;9.232;2023-04-08T12:00:40;101279.16;;;8.77;99.54
21203;BME280;10759;51.982;9.232;2023-04-08T12:03:08;101270.13;;;8.85;99.62
21203;BME280;10759;51.982;9.232;2023-04-08T12:05:37;101245.22;;;8.81;98.69
21203;BME280;10759;51.982;9.232;2023-04-08T12:08:04;101277.22;;;8.87;100.00
21203;BME280;10759;51.982;9.232;2023-04-08T12:10:32;101284.16;;;8.99;99.84
21203;BME280;10759;51.982;9.232;2023-04-08T12:13:00;101284.28;;;8.90;99.90
21203;BME280;10759;51.982;9.232;2023-04-08T12:15:29;101275.97;;;9.07;99.05
21203;BME280;10759;51.982;9.232;2023-04-08T12:17:58;101280.75;;;8.89;99.18
21203;BME280;10759;51.982;9.232;2023-04-08T12:20:26;101286.22;;;8.80;100.00
21203;BME280;10759;51.982;9.232;2023-04-08T12:22:54;101290.84;;;8.69;100.00
21203;BME280;10759;51.982;9.232;2023-04-08T12:25:22;101255.09;;;8.17;100.00
21203;BME280;10759;51.982;9.232;2023-04-08T12:27:49;101288.22;;;8.66;100.00
21203;BME280;10759;51.982;9.232;2023-04-08T12:30:17;101138.44;;;8.21;99.01
21203;BME280;10759;51.982;9.232;2023-04-08T12:32:48;101271.94;;;8.82;98.29
21203;BME280;10759;51.982;9.232;2023-04-08T12:35:15;101294.31;;;8.77;100.00
21203;BME280;10759;51.982;9.232;2023-04-08T12:37:43;101265.66;;;8.85;99.98
21203;BME280;10759;51.982;9.232;2023-04-08T12:40:11;101289.50;;;8.97;98.94
21203;BME280;10759;51.982;9.232;2023-04-08T12:42:40;101294.09;;;8.89;99.61
21203;BME280;10759;51.982;9.232;2023-04-08T12:45:09;101278.94;;;8.91;99.07
21203;BME280;10759;51.982;9.232;2023-04-08T12:47:37;101289.94;;;8.71;100.00
21203;BME280;10759;51.982;9.232;2023-04-08T12:50:07;101220.09;;;8.35;100.00
21203;BME280;10759;51.982;9.232;2023-04-08T12:52:35;101287.69;;;9.01;99.96
21203;BME280;10759;51.982;9.232;2023-04-08T12:55:04;101286.19;;;9.34;97.72
21203;BME280;10759;51.982;9.232;2023-04-08T12:57:32;101275.50;;;9.33;96.77
21203;BME280;10759;51.982;9.232;2023-04-08T13:00:00;101282.31;;;9.51;96.33
21203;BME280;10759;51.982;9.232;2023-04-08T13:02:27;101245.78;;;9.48;95.75
21203;BME280;10759;51.982;9.232;2023-04-08T13:04:56;101277.25;;;9.80;94.66
21203;BME280;10759;51.982;9.232;2023-04-08T13:07:25;101275.38;;;9.84;94.69
21203;BME280;10759;51.982;9.232;2023-04-08T13:09:53;101278.16;;;9.79;94.20